sensor_id;sensor_type;location;lat;lon;timestamp;pressure;altitude;pressure_sealevel;temperature;humidity
27202;BME280;14717;46.924;15.474;2023-01-28T00:00:29;97957.34;;;-0.27;100.00
27202;BME280;14717;46.924;15.474;2023-01-28T00:02:54;97960.44;;;-0.24;100.00
27202;BME280;14717;46.924;15.474;2023-01-28T00:05:20;97956.69;;;-0.23;100.00
27202;BME280;14717;46.924;15.474;2023-01-28T00:07:48;97960.31;;;-0.11;100.00
27202;BME280;14717;46.924;15.474;2023-01-28T00:10:14;97959.09;;;-0.15;100.00
27202;BME280;14717;46.924;15.474;2023-01-28T00:12:40;97966.63;;;-0.17;100.00
27202;BME280;14717;46.924;15.474;2023-01-28T00:15:06;97962.72;;;-0.21;100.00
27202;BME280;14717;46.924;15.474;2023-01-28T00:17:32;97960.78;;;-0.14;100.00
27202;BME280;14717;46.924;15.474;2023-01-28T00:19:57;97964.69;;;-0.28;100.00
27202;BME280;14717;46.924;15.474;2023-01-28T00:22:22;97963.00;;;-0.29;100.00
27202;BME280;14717;46.924;15.474;2023-01-28T00:24:48;97966.91;;;-0.43;100.00
27202;BME280;14717;46.924;15.474;2023-01-28T00:27:13;97963.13;;;-0.42;100.00
27202;BME280;14717;46.924;15.474;2023-01-28T00:29:39;97958.22;;;-0.33;100.00
27202;BME280;14717;46.924;15.474;2023-01-28T00:32:04;97959.97;;;-0.39;100.00
27202;BME280;14717;46.924;15.474;2023-01-28T00:34:30;97964.50;;;-0.33;100.00
27202;BME280;14717;46.924;15.474;2023-01-28T00:36:55;97973.69;;;-0.34;100.00
27202;BME280;14717;46.924;15.474;2023-01-28T00:39:25;97966.91;;;-0.25;100.00
27202;BME280;14717;46.924;15.474;2023-01-28T00:41:51;97975.84;;;-0.18;100.00
27202;BME280;14717;46.924;15.474;2023-01-28T00:44:17;97968.25;;;-0.09;100.00
27202;BME280;14717;46.924;15.474;2023-01-28T00:46:42;97967.81;;;-0.06;100.00
27202;BME280;14717;46.924;15.474;2023-01-28T00:49:08;97966.06;;;-0.01;100.00
27202;BME280;14717;46.924;15.474;2023-01-28T00:51:33;97968.56;;;0.00;100.00
27202;BME280;14717;46.924;15.474;2023-01-28T00:53:59;97976.16;;;-0.08;100.00
27202;BME280;14717;46.924;15.474;2023-01-28T00:56:24;97978.72;;;-0.13;100.00
27202;BME280;14717;46.924;15.474;2023-01-28T00:58:49;97982.47;;;-0.14;100.00
27202;BME280;14717;46.924;15.474;2023-01-28T01:01:19;97981.13;;;-0.05;100.00
27202;BME280;14717;46.924;15.474;2023-01-28T01:03:45;97984.16;;;-0.13;100.00
27202;BME280;14717;46.924;15.474;2023-01-28T01:06:13;97976.44;;;-0.16;100.00
27202;BME280;14717;46.924;15.474;2023-01-28T01:08:39;97991.22;;;-0.12;100.00
27202;BME280;14717;46.924;15.474;2023-01-28T01:11:09;97985.94;;;-0.07;100.00
27202;BME280;14717;46.924;15.474;2023-01-28T01:13:35;97985.63;;;-0.17;100.00
27202;BME280;14717;46.924;15.474;2023-01-28T01:18:34;97985.84;;;-0.18;100.00
27202;BME280;14717;46.924;15.474;2023-01-28T01:21:00;97990.56;;;-0.07;100.00
27202;BME280;14717;46.924;15.474;2023-01-28T01:23:30;97975.19;;;0.04;100.00
27202;BME280;14717;46.924;15.474;2023-01-28T01:25:55;97979.13;;;0.08;100.00
27202;BME280;14717;46.924;15.474;2023-01-28T01:28:21;97984.09;;;0.11;100.00
27202;BME280;14717;46.924;15.474;2023-01-28T01:30:48;97985.09;;;0.17;100.00
27202;BME280;14717;46.924;15.474;2023-01-28T01:33:14;97982.97;;;0.19;100.00
27202;BME280;14717;46.924;15.474;2023-01-28T01:35:39;97986.75;;;0.18;100.00
27202;BME280;14717;46.924;15.474;2023-01-28T01:38:05;97989.59;;;0.23;100.00
27202;BME280;14717;46.924;15.474;2023-01-28T01:40:30;97975.56;;;0.08;100.00
27202;BME280;14717;46.924;15.474;2023-01-28T01:42:55;97991.84;;;0.08;100.00
27202;BME280;14717;46.924;15.474;2023-01-28T01:45:21;97989.78;;;0.10;100.00
27202;BME280;14717;46.924;15.474;2023-01-28T01:47:52;97992.00;;;0.13;100.00
27202;BME280;14717;46.924;15.474;2023-01-28T01:52:57;97972.84;;;0.08;100.00
27202;BME280;14717;46.924;15.474;2023-01-28T01:55:26;97981.47;;;0.05;100.00
27202;BME280;14717;46.924;15.474;2023-01-28T01:57:57;97983.88;;;0.13;100.00
27202;BME280;14717;46.924;15.474;2023-01-28T02:00:26;97986.28;;;0.21;100.00
27202;BME280;14717;46.924;15.474;2023-01-28T02:02:52;97991.72;;;0.21;100.00
27202;BME280;14717;46.924;15.474;2023-01-28T02:05:20;97995.66;;;0.07;100.00
27202;BME280;14717;46.924;15.474;2023-01-28T02:07:48;98001.06;;;0.07;100.00
27202;BME280;14717;46.924;15.474;2023-01-28T02:10:14;97992.78;;;0.02;100.00
27202;BME280;14717;46.924;15.474;2023-01-28T02:12:48;97994.72;;;0.13;100.00
27202;BME280;14717;46.924;15.474;2023-01-28T02:15:18;97991.34;;;0.17;100.00
27202;BME280;14717;46.924;15.474;2023-01-28T02:17:45;97987.72;;;0.05;100.00
27202;BME280;14717;46.924;15.474;2023-01-28T02:20:12;97996.47;;;0.07;100.00
27202;BME280;14717;46.924;15.474;2023-01-28T02:26:41;97987.97;;;0.22;100.00
27202;BME280;14717;46.924;15.474;2023-01-28T02:28:45;97985.22;;;0.04;100.00
27202;BME280;14717;46.924;15.474;2023-01-28T02:34:33;97983.56;;;0.03;100.00
27202;BME280;14717;46.924;15.474;2023-01-28T02:37:14;97978.66;;;0.11;100.00
27202;BME280;14717;46.924;15.474;2023-01-28T02:39:54;97985.09;;;0.17;100.00
27202;BME280;14717;46.924;15.474;2023-01-28T02:42:25;97983.13;;;0.06;100.00
27202;BME280;14717;46.924;15.474;2023-01-28T02:44:52;97986.75;;;0.18;100.00
27202;BME280;14717;46.924;15.474;2023-01-28T02:47:18;97978.38;;;0.19;100.00
27202;BME280;14717;46.924;15.474;2023-01-28T02:50:06;97979.97;;;0.09;99.94
27202;BME280;14717;46.924;15.474;2023-01-28T03:05:02;97987.72;;;0.05;100.00
27202;BME280;14717;46.924;15.474;2023-01-28T03:07:32;97995.09;;;-0.01;100.00
27202;BME280;14717;46.924;15.474;2023-01-28T03:10:02;97999.91;;;-0.03;100.00
27202;BME280;14717;46.924;15.474;2023-01-28T03:12:31;97984.47;;;-0.03;100.00
27202;BME280;14717;46.924;15.474;2023-01-28T03:15:20;97987.13;;;0.03;100.00
27202;BME280;14717;46.924;15.474;2023-01-28T03:18:29;97988.22;;;-0.04;100.00
27202;BME280;14717;46.924;15.474;2023-01-28T03:21:22;97986.66;;;-0.11;100.00
27202;BME280;14717;46.924;15.474;2023-01-28T03:24:21;97988.22;;;-0.04;100.00
27202;BME280;14717;46.924;15.474;2023-01-28T03:29:59;97996.06;;;-0.14;100.00
27202;BME280;14717;46.924;15.474;2023-01-28T03:32:45;97994.69;;;-0.23;100.00
27202;BME280;14717;46.924;15.474;2023-01-28T03:35:32;98002.50;;;-0.15;100.00
27202;BME280;14717;46.924;15.474;2023-01-28T03:38:18;97987.84;;;-0.07;100.00
27202;BME280;14717;46.924;15.474;2023-01-28T03:40:56;97990.06;;;0.02;100.00
27202;BME280;14717;46.924;15.474;2023-01-28T03:43:23;97984.16;;;-0.13;100.00
27202;BME280;14717;46.924;15.474;2023-01-28T03:45:48;97991.22;;;-0.12;100.00
27202;BME280;14717;46.924;15.474;2023-01-28T03:48:22;97992.06;;;-0.11;100.00
27202;BME280;14717;46.924;15.474;2023-01-28T03:50:48;97996.44;;;-0.10;100.00
27202;BME280;14717;46.924;15.474;2023-01-28T03:53:14;97999.16;;;-0.10;100.00
27202;BME280;14717;46.924;15.474;2023-01-28T03:55:45;97995.78;;;-0.06;100.00
27202;BME280;14717;46.924;15.474;2023-01-28T03:58:11;97994.63;;;0.01;100.00
27202;BME280;14717;46.924;15.474;2023-01-28T04:00:37;97990.81;;;0.09;100.00
27202;BME280;14717;46.924;15.474;2023-01-28T04:03:14;97992.78;;;0.02;100.00
27202;BME280;14717;46.924;15.474;2023-01-28T04:06:01;98001.19;;;-0.06;100.00
27202;BME280;14717;46.924;15.474;2023-01-28T04:08:27;97992.47;;;-0.08;100.00
27202;BME280;14717;46.924;15.474;2023-01-28T04:10:52;97993.34;;;-0.14;100.00
27202;BME280;14717;46.924;15.474;2023-01-28T04:13:18;97996.06;;;-0.14;100.00
27202;BME280;14717;46.924;15.474;2023-01-28T04:15:43;97990.13;;;-0.04;100.00
27202;BME280;14717;46.924;15.474;2023-01-28T04:18:09;97983.41;;;-0.02;100.00
27202;BME280;14717;46.924;15.474;2023-01-28T04:20:35;97987.34;;;0.02;100.00
27202;BME280;14717;46.924;15.474;2023-01-28T04:23:02;97992.06;;;0.06;100.00
27202;BME280;14717;46.924;15.474;2023-01-28T04:25:29;98005.06;;;-0.20;100.00
27202;BME280;14717;46.924;15.474;2023-01-28T04:27:54;97997.22;;;-0.28;100.00
27202;BME280;14717;46.924;15.474;2023-01-28T04:30:19;98009.22;;;-0.17;100.00
27202;BME280;14717;46.924;15.474;2023-01-28T04:32:45;98013.09;;;-0.07;100.00
27202;BME280;14717;46.924;15.474;2023-01-28T04:35:11;98024.38;;;-0.28;100.00
27202;BME280;14717;46.924;15.474;2023-01-28T04:37:36;98013.03;;;-0.25;100.00
27202;BME280;14717;46.924;15.474;2023-01-28T04:40:02;98007.78;;;-0.20;100.00
27202;BME280;14717;46.924;15.474;2023-01-28T04:42:27;98013.91;;;-0.24;100.00
27202;BME280;14717;46.924;15.474;2023-01-28T04:44:53;98022.75;;;-0.11;100.00
27202;BME280;14717;46.924;15.474;2023-01-28T04:47:18;98029.81;;;-0.10;100.00
27202;BME280;14717;46.924;15.474;2023-01-28T04:49:44;98027.91;;;-0.03;100.00
27202;BME280;14717;46.924;15.474;2023-01-28T04:52:09;98031.66;;;-0.04;100.00
27202;BME280;14717;46.924;15.474;2023-01-28T04:54:35;98024.13;;;-0.02;100.00
27202;BME280;14717;46.924;15.474;2023-01-28T04:57:00;98031.28;;;-0.07;100.00
27202;BME280;14717;46.924;15.474;2023-01-28T04:59:25;98028.66;;;0.04;100.00
27202;BME280;14717;46.924;15.474;2023-01-28T05:01:51;98027.00;;;0.03;100.00
27202;BME280;14717;46.924;15.474;2023-01-28T05:04:16;98038.47;;;0.05;100.00
27202;BME280;14717;46.924;15.474;2023-01-28T05:06:42;98036.97;;;0.09;100.00
27202;BME280;14717;46.924;15.474;2023-01-28T05:09:07;98034.19;;;0.15;100.00
27202;BME280;14717;46.924;15.474;2023-01-28T05:11:33;98035.16;;;0.21;100.00
27202;BME280;14717;46.924;15.474;2023-01-28T05:13:58;98046.03;;;0.21;100.00
27202;BME280;14717;46.924;15.474;2023-01-28T05:16:23;98046.03;;;0.21;100.00
27202;BME280;14717;46.924;15.474;2023-01-28T05:18:49;98045.72;;;0.11;100.00
27202;BME280;14717;46.924;15.474;2023-01-28T05:21:16;98050.22;;;-0.01;100.00
27202;BME280;14717;46.924;15.474;2023-01-28T05:23:41;98052.78;;;-0.06;100.00
27202;BME280;14717;46.924;15.474;2023-01-28T05:26:07;98051.78;;;-0.11;100.00
27202;BME280;14717;46.924;15.474;2023-01-28T05:28:32;98065.00;;;0.03;100.00
27202;BME280;14717;46.924;15.474;2023-01-28T05:31:02;98055.47;;;0.18;100.00
27202;BME280;14717;46.924;15.474;2023-01-28T05:33:28;98063.41;;;0.20;100.00
27202;BME280;14717;46.924;15.474;2023-01-28T05:35:54;98063.09;;;0.28;100.00
27202;BME280;14717;46.924;15.474;2023-01-28T05:38:19;98064.75;;;0.29;100.00
27202;BME280;14717;46.924;15.474;2023-01-28T05:40:46;98069.16;;;0.30;100.00
27202;BME280;14717;46.924;15.474;2023-01-28T05:43:11;98063.03;;;0.34;100.00
27202;BME280;14717;46.924;15.474;2023-01-28T05:45:37;98074.09;;;0.33;100.00
27202;BME280;14717;46.924;15.474;2023-01-28T05:48:02;98076.06;;;0.26;100.00
27202;BME280;14717;46.924;15.474;2023-01-28T05:50:28;98079.06;;;0.18;100.00
27202;BME280;14717;46.924;15.474;2023-01-28T05:52:53;98068.03;;;0.13;100.00
27202;BME280;14717;46.924;15.474;2023-01-28T05:55:18;98074.88;;;0.22;100.00
27202;BME280;14717;46.924;15.474;2023-01-28T05:57:44;98070.19;;;0.29;100.00
27202;BME280;14717;46.924;15.474;2023-01-28T06:00:10;98078.78;;;0.26;100.00
27202;BME280;14717;46.924;15.474;2023-01-28T06:02:35;98078.84;;;0.19;100.00
27202;BME280;14717;46.924;15.474;2023-01-28T06:05:00;98076.97;;;0.20;100.00
27202;BME280;14717;46.924;15.474;2023-01-28T06:07:26;98081.94;;;0.23;100.00
27202;BME280;14717;46.924;15.474;2023-01-28T06:09:51;98086.94;;;0.26;100.00
27202;BME280;14717;46.924;15.474;2023-01-28T06:12:20;98088.38;;;0.28;100.00
27202;BME280;14717;46.924;15.474;2023-01-28T06:14:45;98092.78;;;0.23;100.00
27202;BME280;14717;46.924;15.474;2023-01-28T06:17:10;98098.38;;;0.28;100.00
27202;BME280;14717;46.924;15.474;2023-01-28T06:19:36;98098.59;;;0.26;100.00
27202;BME280;14717;46.924;15.474;2023-01-28T06:22:01;98097.19;;;0.24;100.00
27202;BME280;14717;46.924;15.474;2023-01-28T06:24:27;98104.34;;;0.18;100.00
27202;BME280;14717;46.924;15.474;2023-01-28T06:26:52;98106.34;;;0.05;100.00
27202;BME280;14717;46.924;15.474;2023-01-28T06:29:17;98108.75;;;0.13;100.00
27202;BME280;14717;46.924;15.474;2023-01-28T06:31:42;98104.03;;;0.26;100.00
27202;BME280;14717;46.924;15.474;2023-01-28T06:34:08;98117.25;;;0.23;100.00
27202;BME280;14717;46.924;15.474;2023-01-28T06:36:35;98119.94;;;0.23;100.00
27202;BME280;14717;46.924;15.474;2023-01-28T06:39:02;98114.13;;;0.19;100.00
27202;BME280;14717;46.924;15.474;2023-01-28T06:41:28;98123.06;;;0.26;100.00
27202;BME280;14717;46.924;15.474;2023-01-28T06:43:53;98120.97;;;0.28;100.00
27202;BME280;14717;46.924;15.474;2023-01-28T06:46:18;98131.16;;;0.33;100.00
27202;BME280;14717;46.924;15.474;2023-01-28T06:48:44;98130.09;;;0.34;100.00
27202;BME280;14717;46.924;15.474;2023-01-28T06:51:09;98130.72;;;0.36;100.00
27202;BME280;14717;46.924;15.474;2023-01-28T06:53:34;98139.47;;;0.38;100.00
27202;BME280;14717;46.924;15.474;2023-01-28T06:56:00;98131.94;;;0.40;100.00
27202;BME280;14717;46.924;15.474;2023-01-28T06:58:25;98132.53;;;0.42;100.00
27202;BME280;14717;46.924;15.474;2023-01-28T07:00:52;98139.03;;;0.41;100.00
27202;BME280;14717;46.924;15.474;2023-01-28T07:03:17;98137.03;;;0.30;100.00
27202;BME280;14717;46.924;15.474;2023-01-28T07:05:42;98138.25;;;0.34;100.00
27202;BME280;14717;46.924;15.474;2023-01-28T07:08:08;98138.41;;;0.39;100.00
27202;BME280;14717;46.924;15.474;2023-01-28T07:10:33;98145.69;;;0.44;100.00
27202;BME280;14717;46.924;15.474;2023-01-28T07:12:59;98142.34;;;0.42;100.00
27202;BME280;14717;46.924;15.474;2023-01-28T07:15:24;98150.09;;;0.39;100.00
27202;BME280;14717;46.924;15.474;2023-01-28T07:17:49;98146.94;;;0.42;100.00
27202;BME280;14717;46.924;15.474;2023-01-28T07:20:15;98144.19;;;0.48;100.00
27202;BME280;14717;46.924;15.474;2023-01-28T07:22:44;98147.88;;;0.54;100.00
27202;BME280;14717;46.924;15.474;2023-01-28T07:25:11;98165.31;;;0.46;100.00
27202;BME280;14717;46.924;15.474;2023-01-28T07:27:37;98159.28;;;0.44;100.00
27202;BME280;14717;46.924;15.474;2023-01-28T07:30:05;98159.44;;;0.49;99.85
27202;BME280;14717;46.924;15.474;2023-01-28T07:32:31;98151.03;;;0.51;99.90
27202;BME280;14717;46.924;15.474;2023-01-28T07:34:56;98157.09;;;0.53;99.38
27202;BME280;14717;46.924;15.474;2023-01-28T07:37:22;98164.22;;;0.47;99.92
27202;BME280;14717;46.924;15.474;2023-01-28T07:39:48;98156.31;;;0.46;99.05
27202;BME280;14717;46.924;15.474;2023-01-28T07:53:45;98179.47;;;0.24;100.00
27202;BME280;14717;46.924;15.474;2023-01-28T07:56:10;98184.69;;;0.26;100.00
27202;BME280;14717;46.924;15.474;2023-01-28T07:58:36;98178.38;;;0.32;100.00
27202;BME280;14717;46.924;15.474;2023-01-28T08:01:01;98182.75;;;0.33;100.00
27202;BME280;14717;46.924;15.474;2023-01-28T08:03:27;98184.25;;;0.29;100.00
27202;BME280;14717;46.924;15.474;2023-01-28T08:05:54;98187.56;;;0.31;100.00
27202;BME280;14717;46.924;15.474;2023-01-28T08:08:21;98186.53;;;0.32;100.00
27202;BME280;14717;46.924;15.474;2023-01-28T08:10:47;98192.56;;;0.34;100.00
27202;BME280;14717;46.924;15.474;2023-01-28T08:13:14;98198.38;;;0.37;100.00
27202;BME280;14717;46.924;15.474;2023-01-28T08:15:40;98199.38;;;0.42;100.00
27202;BME280;14717;46.924;15.474;2023-01-28T08:18:07;98197.34;;;0.38;99.89
27202;BME280;14717;46.924;15.474;2023-01-28T08:20:33;98210.25;;;0.42;99.85
27202;BME280;14717;46.924;15.474;2023-01-28T08:23:11;98202.72;;;0.44;98.72
27202;BME280;14717;46.924;15.474;2023-01-28T08:25:37;98202.44;;;0.52;99.13
27202;BME280;14717;46.924;15.474;2023-01-28T08:28:03;98200.19;;;0.49;97.31
27202;BME280;14717;46.924;15.474;2023-01-28T08:30:29;98203.94;;;0.73;98.18
27202;BME280;14717;46.924;15.474;2023-01-28T08:32:56;98206.28;;;0.87;97.69
27202;BME280;14717;46.924;15.474;2023-01-28T08:35:23;98204.25;;;0.83;97.79
27202;BME280;14717;46.924;15.474;2023-01-28T08:37:49;98209.16;;;0.92;97.91
27202;BME280;14717;46.924;15.474;2023-01-28T08:40:14;98214.47;;;1.05;98.07
27202;BME280;14717;46.924;15.474;2023-01-28T08:42:46;98219.47;;;1.08;97.21
27202;BME280;14717;46.924;15.474;2023-01-28T08:45:12;98210.59;;;1.19;97.63
27202;BME280;14717;46.924;15.474;2023-01-28T08:47:49;98222.34;;;1.13;96.70
27202;BME280;14717;46.924;15.474;2023-01-28T08:50:15;98215.66;;;1.15;96.09
27202;BME280;14717;46.924;15.474;2023-01-28T08:52:42;98220.28;;;1.08;94.16
27202;BME280;14717;46.924;15.474;2023-01-28T08:55:09;98228.16;;;1.16;94.97
27202;BME280;14717;46.924;15.474;2023-01-28T08:57:34;98233.41;;;1.35;95.48
27202;BME280;14717;46.924;15.474;2023-01-28T09:00:00;98234.91;;;1.49;94.14
27202;BME280;14717;46.924;15.474;2023-01-28T09:02:25;98230.25;;;1.38;93.14
27202;BME280;14717;46.924;15.474;2023-01-28T09:04:50;98231.44;;;1.25;92.50
27202;BME280;14717;46.924;15.474;2023-01-28T09:07:16;98240.78;;;1.11;92.43
27202;BME280;14717;46.924;15.474;2023-01-28T09:09:41;98248.03;;;1.17;93.34
27202;BME280;14717;46.924;15.474;2023-01-28T09:12:06;98239.13;;;1.27;93.46
27202;BME280;14717;46.924;15.474;2023-01-28T09:14:35;98243.16;;;1.25;93.57
27202;BME280;14717;46.924;15.474;2023-01-28T09:17:00;98250.16;;;1.15;92.71
27202;BME280;14717;46.924;15.474;2023-01-28T09:19:26;98250.91;;;1.04;93.07
27202;BME280;14717;46.924;15.474;2023-01-28T09:21:51;98254.66;;;1.03;93.95
27202;BME280;14717;46.924;15.474;2023-01-28T09:24:17;98265.13;;;1.24;94.78
27202;BME280;14717;46.924;15.474;2023-01-28T09:26:43;98257.25;;;1.16;93.03
27202;BME280;14717;46.924;15.474;2023-01-28T09:29:09;98253.47;;;1.17;93.36
27202;BME280;14717;46.924;15.474;2023-01-28T09:31:34;98255.75;;;1.20;94.47
27202;BME280;14717;46.924;15.474;2023-01-28T09:34:00;98257.44;;;0.96;93.79
27202;BME280;14717;46.924;15.474;2023-01-28T09:36:25;98263.88;;;1.02;93.54
27202;BME280;14717;46.924;15.474;2023-01-28T09:38:50;98259.59;;;1.12;93.47
27202;BME280;14717;46.924;15.474;2023-01-28T09:41:23;98261.06;;;1.32;93.60
27202;BME280;14717;46.924;15.474;2023-01-28T09:46:30;98256.84;;;1.36;94.49
27202;BME280;14717;46.924;15.474;2023-01-28T09:48:57;98255.16;;;1.35;95.07
27202;BME280;14717;46.924;15.474;2023-01-28T09:51:38;98263.34;;;1.53;95.44
27202;BME280;14717;46.924;15.474;2023-01-28T09:54:58;98263.22;;;1.66;94.58
27202;BME280;14717;46.924;15.474;2023-01-28T09:57:05;98257.56;;;1.79;93.12
27202;BME280;14717;46.924;15.474;2023-01-28T09:59:35;98260.22;;;1.85;92.16
27202;BME280;14717;46.924;15.474;2023-01-28T10:02:36;98255.53;;;1.92;92.49
27202;BME280;14717;46.924;15.474;2023-01-28T10:07:51;98260.88;;;1.99;92.54
27202;BME280;14717;46.924;15.474;2023-01-28T10:10:49;98261.50;;;2.01;92.03
27202;BME280;14717;46.924;15.474;2023-01-28T10:14:12;98254.38;;;2.00;91.75
27202;BME280;14717;46.924;15.474;2023-01-28T10:18:48;98257.69;;;2.02;91.77
27202;BME280;14717;46.924;15.474;2023-01-28T10:21:24;98254.38;;;2.00;90.14
27202;BME280;14717;46.924;15.474;2023-01-28T10:23:59;98260.19;;;2.03;89.79
27202;BME280;14717;46.924;15.474;2023-01-28T10:26:36;98251.44;;;2.01;89.50
27202;BME280;14717;46.924;15.474;2023-01-28T10:29:12;98252.63;;;2.05;90.54
27202;BME280;14717;46.924;15.474;2023-01-28T10:31:52;98258.41;;;1.97;88.64
27202;BME280;14717;46.924;15.474;2023-01-28T10:34:18;98254.28;;;2.06;88.98
27202;BME280;14717;46.924;15.474;2023-01-28T10:36:45;98259.41;;;1.85;89.36
27202;BME280;14717;46.924;15.474;2023-01-28T10:39:17;98256.97;;;1.95;88.83
27202;BME280;14717;46.924;15.474;2023-01-28T10:41:44;98248.03;;;2.06;88.68
27202;BME280;14717;46.924;15.474;2023-01-28T10:44:17;98246.03;;;2.12;88.38
27202;BME280;14717;46.924;15.474;2023-01-28T10:46:47;98248.75;;;2.12;88.20
27202;BME280;14717;46.924;15.474;2023-01-28T10:49:18;98248.91;;;2.17;88.63
27202;BME280;14717;46.924;15.474;2023-01-28T10:51:46;98255.44;;;1.99;87.66
27202;BME280;14717;46.924;15.474;2023-01-28T10:54:22;98250.78;;;1.88;89.10
27202;BME280;14717;46.924;15.474;2023-01-28T10:56:51;98258.63;;;1.96;88.79
27202;BME280;14717;46.924;15.474;2023-01-28T10:59:27;98248.94;;;2.00;88.97
27202;BME280;14717;46.924;15.474;2023-01-28T11:02:17;98246.13;;;2.06;88.91
27202;BME280;14717;46.924;15.474;2023-01-28T11:04:41;98247.09;;;2.11;87.35
27202;BME280;14717;46.924;15.474;2023-01-28T11:07:18;98241.81;;;1.99;87.70
27202;BME280;14717;46.924;15.474;2023-01-28T11:09:47;98240.44;;;2.08;88.48
27202;BME280;14717;46.924;15.474;2023-01-28T11:12:20;98239.50;;;2.13;87.80
27202;BME280;14717;46.924;15.474;2023-01-28T11:15:04;98250.13;;;2.04;87.87
27202;BME280;14717;46.924;15.474;2023-01-28T11:17:33;98245.44;;;2.11;88.99
27202;BME280;14717;46.924;15.474;2023-01-28T11:20:08;98239.66;;;2.18;88.76
27202;BME280;14717;46.924;15.474;2023-01-28T11:22:37;98229.97;;;2.22;90.03
27202;BME280;14717;46.924;15.474;2023-01-28T11:25:15;98235.56;;;2.27;89.71
27202;BME280;14717;46.924;15.474;2023-01-28T11:27:46;98236.38;;;2.28;88.86
27202;BME280;14717;46.924;15.474;2023-01-28T11:30:33;98238.13;;;2.22;89.65
27202;BME280;14717;46.924;15.474;2023-01-28T11:33:18;98226.78;;;2.25;89.67
27202;BME280;14717;46.924;15.474;2023-01-28T11:35:53;98219.19;;;2.27;89.62
27202;BME280;14717;46.924;15.474;2023-01-28T11:38:22;98218.84;;;2.24;88.54
27202;BME280;14717;46.924;15.474;2023-01-28T11:40:57;98219.06;;;2.22;89.51
27202;BME280;14717;46.924;15.474;2023-01-28T11:43:27;98213.88;;;2.32;90.30
27202;BME280;14717;46.924;15.474;2023-01-28T11:46:35;98212.47;;;2.41;90.55
27202;BME280;14717;46.924;15.474;2023-01-28T12:04:01;98207.22;;;2.28;88.99
27202;BME280;14717;46.924;15.474;2023-01-28T12:09:56;98209.47;;;2.31;88.48
27202;BME280;14717;46.924;15.474;2023-01-28T12:12:37;98200.63;;;2.07;88.06
27202;BME280;14717;46.924;15.474;2023-01-28T12:15:32;98200.91;;;2.16;90.69
27202;BME280;14717;46.924;15.474;2023-01-28T12:26:10;98196.72;;;2.32;88.90
27202;BME280;14717;46.924;15.474;2023-01-28T12:37:06;98198.63;;;2.43;87.99
27202;BME280;14717;46.924;15.474;2023-01-28T12:45:01;98192.72;;;2.46;89.61
27202;BME280;14717;46.924;15.474;2023-01-28T12:47:35;98196.72;;;2.43;88.45
27202;BME280;14717;46.924;15.474;2023-01-28T12:50:14;98193.41;;;2.41;87.71
27202;BME280;14717;46.924;15.474;2023-01-28T12:52:49;98203.38;;;2.47;89.98
27202;BME280;14717;46.924;15.474;2023-01-28T12:55:20;98200.53;;;2.42;89.06
27202;BME280;14717;46.924;15.474;2023-01-28T12:57:47;98200.25;;;2.32;87.92
27202;BME280;14717;46.924;15.474;2023-01-28T13:00:27;98198.50;;;2.38;88.70
27202;BME280;14717;46.924;15.474;2023-01-28T13:05:33;98204.13;;;2.25;90.37
27202;BME280;14717;46.924;15.474;2023-01-28T13:08:16;98201.91;;;2.33;89.15
27202;BME280;14717;46.924;15.474;2023-01-28T13:10:45;98206.34;;;1.87;88.69
27202;BME280;14717;46.924;15.474;2023-01-28T13:13:35;98202.59;;;2.17;89.30
27202;BME280;14717;46.924;15.474;2023-01-28T13:16:02;98195.28;;;2.29;88.25
27202;BME280;14717;46.924;15.474;2023-01-28T13:28:52;98207.34;;;2.33;89.48
27202;BME280;14717;46.924;15.474;2023-01-28T13:31:21;98210.47;;;2.37;89.01
27202;BME280;14717;46.924;15.474;2023-01-28T13:34:00;98209.28;;;2.44;89.35
27202;BME280;14717;46.924;15.474;2023-01-28T13:36:32;98215.19;;;2.41;87.83
27202;BME280;14717;46.924;15.474;2023-01-28T13:41:40;98223.72;;;2.33;88.86
27202;BME280;14717;46.924;15.474;2023-01-28T13:46:53;98231.38;;;2.25;87.11
27202;BME280;14717;46.924;15.474;2023-01-28T13:49:31;98231.03;;;2.21;88.78
27202;BME280;14717;46.924;15.474;2023-01-28T13:51:59;98234.69;;;2.15;88.17
27202;BME280;14717;46.924;15.474;2023-01-28T13:54:27;98231.69;;;2.06;87.92
27202;BME280;14717;46.924;15.474;2023-01-28T14:10:33;98246.00;;;2.30;88.47
27202;BME280;14717;46.924;15.474;2023-01-28T14:18:37;98262.34;;;2.30;87.95
27202;BME280;14717;46.924;15.474;2023-01-28T14:21:11;98263.47;;;2.23;87.52
27202;BME280;14717;46.924;15.474;2023-01-28T14:23:43;98263.88;;;2.09;88.42
27202;BME280;14717;46.924;15.474;2023-01-28T14:29:17;98279.94;;;1.99;89.94
27202;BME280;14717;46.924;15.474;2023-01-28T14:31:45;98278.81;;;1.88;91.09
27202;BME280;14717;46.924;15.474;2023-01-28T14:34:27;98279.19;;;1.92;92.44
27202;BME280;14717;46.924;15.474;2023-01-28T14:36:56;98272.72;;;1.93;92.27
27202;BME280;14717;46.924;15.474;2023-01-28T14:39:26;98276.03;;;1.95;92.10
27202;BME280;14717;46.924;15.474;2023-01-28T14:41:53;98288.13;;;1.99;92.62
27202;BME280;14717;46.924;15.474;2023-01-28T14:44:38;98286.63;;;2.03;92.41
27202;BME280;14717;46.924;15.474;2023-01-28T14:47:28;98283.72;;;2.15;92.62
27202;BME280;14717;46.924;15.474;2023-01-28T14:50:18;98292.72;;;2.16;91.93
27202;BME280;14717;46.924;15.474;2023-01-28T14:58:17;98304.50;;;1.81;92.58
27202;BME280;14717;46.924;15.474;2023-01-28T15:00:53;98306.22;;;1.75;93.51
27202;BME280;14717;46.924;15.474;2023-01-28T15:03:19;98305.47;;;1.68;93.79
27202;BME280;14717;46.924;15.474;2023-01-28T15:05:45;98312.34;;;1.71;93.18
27202;BME280;14717;46.924;15.474;2023-01-28T15:08:21;98302.75;;;1.86;94.65
27202;BME280;14717;46.924;15.474;2023-01-28T15:10:47;98314.53;;;1.80;95.40
27202;BME280;14717;46.924;15.474;2023-01-28T15:13:26;98311.06;;;1.73;95.22
27202;BME280;14717;46.924;15.474;2023-01-28T15:15:54;98317.94;;;1.76;95.63
27202;BME280;14717;46.924;15.474;2023-01-28T15:18:41;98313.69;;;1.62;95.94